createdAt,value
2022-08-22T00:01:27.776Z,47.12
2022-08-22T00:03:01.921Z,35.35
2022-08-22T00:03:04.819Z,38.07
2022-08-22T00:04:10.763Z,47.17
2022-08-22T00:06:52.503Z,47.24
2022-08-22T00:09:33.169Z,47.18
2022-08-22T00:12:16.721Z,47.32
2022-08-22T00:14:51.740Z,47.47
2022-08-22T00:17:43.333Z,47.64
2022-08-22T00:20:19.690Z,47.65
2022-08-22T00:23:06.318Z,47.65
2022-08-22T00:25:46.126Z,47.87
2022-08-22T00:28:20.694Z,47.97
2022-08-22T00:30:59.727Z,47.95
2022-08-22T00:33:41.641Z,48.04
2022-08-22T00:36:20.513Z,48.23
2022-08-22T00:38:55.112Z,48.04
2022-08-22T00:41:46.369Z,48.32
2022-08-22T00:45:00.935Z,48.57
2022-08-22T00:47:51.101Z,48.34
2022-08-22T00:50:55.892Z,48.08
2022-08-22T00:53:52.645Z,48.28
2022-08-22T00:57:00.271Z,48.42
2022-08-22T01:00:14.976Z,48.68
2022-08-22T01:03:12.780Z,48.54
2022-08-22T01:05:59.877Z,48.78
2022-08-22T01:08:47.970Z,48.18
2022-08-22T01:11:42.034Z,48.20
2022-08-22T01:14:35.007Z,47.98
2022-08-22T01:17:42.847Z,47.97
2022-08-22T01:21:24.372Z,48.01
2022-08-22T01:25:03.294Z,47.97
2022-08-22T01:28:41.723Z,47.94
2022-08-22T01:32:28.942Z,48.61
2022-08-22T01:35:25.389Z,47.62
2022-08-22T01:39:04.061Z,46.96
2022-08-22T01:42:16.109Z,46.47
2022-08-22T01:45:06.586Z,46.64
2022-08-22T01:47:41.722Z,46.23
2022-08-22T01:50:23.897Z,46.54
2022-08-22T01:53:01.925Z,46.32
2022-08-22T01:55:36.493Z,46.00
2022-08-22T01:58:17.239Z,46.63
2022-08-22T02:01:09.983Z,46.61
2022-08-22T02:03:52.584Z,46.29
2022-08-22T02:06:34.081Z,46.06
2022-08-22T02:09:09.441Z,45.86
2022-08-22T02:11:46.155Z,45.54
2022-08-22T02:14:36.121Z,45.93
2022-08-22T02:17:18.548Z,45.80
2022-08-22T02:19:58.126Z,45.61
2022-08-22T02:22:37.913Z,45.75
2022-08-22T02:25:20.802Z,45.83
2022-08-22T02:27:58.938Z,45.85
2022-08-22T02:30:45.374Z,45.86
2022-08-22T02:33:26.612Z,46.02
2022-08-22T02:36:02.063Z,47.18
2022-08-22T02:38:38.470Z,46.57
2022-08-22T02:41:17.773Z,46.88
2022-08-22T02:43:52.814Z,46.36
2022-08-22T02:46:30.890Z,46.32
2022-08-22T02:49:08.828Z,46.27
2022-08-22T02:51:48.049Z,46.46
2022-08-22T02:54:29.382Z,46.18
2022-08-22T02:57:04.823Z,46.56
2022-08-22T02:59:38.036Z,46.22
2022-08-22T03:02:36.666Z,46.43
2022-08-22T03:05:23.934Z,47.03
2022-08-22T03:08:02.470Z,47.90
2022-08-22T03:10:38.215Z,48.40
2022-08-22T03:13:13.147Z,48.72
2022-08-22T03:15:50.599Z,48.81
2022-08-22T03:18:27.045Z,49.34
2022-08-22T03:21:12.986Z,49.50
2022-08-22T03:23:47.632Z,49.47
2022-08-22T03:26:30.705Z,49.85
2022-08-22T03:29:05.989Z,49.82
2022-08-22T03:31:34.678Z,50.08
2022-08-22T03:34:23.231Z,49.99
2022-08-22T03:37:07.964Z,50.13
2022-08-22T03:39:50.999Z,50.26
2022-08-22T03:43:09.218Z,50.29
2022-08-22T03:46:13.709Z,50.74
2022-08-22T03:49:39.341Z,50.61
2022-08-22T03:53:03.971Z,50.65
2022-08-22T03:56:06.353Z,50.82
2022-08-22T03:59:16.583Z,50.80
2022-08-22T04:02:42.546Z,50.79
2022-08-22T04:06:12.702Z,50.58
2022-08-22T04:09:19.894Z,50.33
2022-08-22T04:12:24.572Z,50.68
2022-08-22T04:15:19.924Z,51.18
2022-08-22T04:18:05.551Z,51.57
2022-08-22T04:21:09.076Z,51.97
2022-08-22T04:24:20.197Z,51.78
2022-08-22T04:26:54.318Z,52.03
2022-08-22T04:29:30.043Z,51.97
2022-08-22T04:32:12.699Z,52.18
2022-08-22T04:34:48.829Z,52.28
2022-08-22T04:37:25.272Z,52.71
2022-08-22T04:40:00.191Z,52.72
2022-08-22T04:42:34.925Z,52.98
2022-08-22T04:45:11.080Z,53.07
2022-08-22T04:47:47.202Z,53.06
2022-08-22T04:50:27.068Z,53.17
2022-08-22T04:53:13.910Z,53.37
2022-08-22T04:55:57.448Z,53.30
2022-08-22T04:58:43.305Z,53.47
2022-08-22T05:01:18.944Z,53.58
2022-08-22T05:03:57.323Z,53.49
2022-08-22T05:06:31.716Z,53.61
2022-08-22T05:09:07.302Z,53.41
2022-08-22T05:11:37.443Z,53.27
2022-08-22T05:14:18.917Z,52.07
2022-08-22T05:16:52.360Z,51.00
2022-08-22T05:19:32.131Z,50.14
2022-08-22T05:22:01.819Z,49.29
2022-08-22T05:24:37.467Z,48.94
2022-08-22T05:27:13.812Z,48.56
2022-08-22T05:29:47.302Z,49.43
2022-08-22T05:32:22.999Z,50.97
2022-08-22T05:34:57.273Z,51.98
2022-08-22T05:37:32.141Z,52.59
2022-08-22T05:40:01.862Z,52.59
2022-08-22T05:42:34.929Z,53.36
2022-08-22T05:45:11.513Z,53.10
2022-08-22T05:47:46.903Z,53.33
2022-08-22T05:50:21.371Z,53.18
2022-08-22T05:53:06.270Z,53.40
2022-08-22T05:55:47.038Z,53.37
2022-08-22T05:58:47.160Z,53.24
2022-08-22T06:01:30.165Z,53.36
2022-08-22T06:04:07.666Z,53.38
2022-08-22T06:06:44.122Z,53.46
2022-08-22T06:09:20.295Z,53.62
2022-08-22T06:11:59.082Z,53.25
2022-08-22T06:14:37.350Z,53.20
2022-08-22T06:17:13.669Z,53.10
2022-08-22T06:19:45.191Z,52.82
2022-08-22T06:22:19.831Z,52.64
2022-08-22T06:24:51.460Z,51.91
2022-08-22T06:27:31.107Z,49.91
2022-08-22T06:30:03.990Z,47.86
2022-08-22T06:32:58.847Z,45.49
2022-08-22T06:35:30.414Z,43.79
2022-08-22T06:38:02.064Z,42.68
2022-08-22T06:40:31.816Z,42.48
2022-08-22T06:43:00.766Z,42.66
2022-08-22T06:45:33.176Z,43.53
2022-08-22T06:48:16.836Z,43.88
2022-08-22T06:50:49.846Z,44.95
2022-08-22T06:53:23.140Z,45.29
2022-08-22T06:55:55.705Z,46.28
2022-08-22T06:58:31.004Z,46.60
2022-08-22T07:01:12.454Z,46.77
2022-08-22T07:03:46.172Z,46.30
2022-08-22T07:06:18.432Z,46.67
2022-08-22T07:08:55.752Z,46.80
2022-08-22T07:11:28.330Z,46.75
2022-08-22T07:14:01.848Z,47.03
2022-08-22T07:16:33.604Z,46.78
2022-08-22T07:19:03.141Z,46.54
2022-08-22T07:21:43.534Z,46.24
2022-08-22T07:24:19.386Z,45.86
2022-08-22T07:27:12.657Z,45.99
2022-08-22T07:29:53.056Z,46.27
2022-08-22T07:32:30.531Z,44.94
2022-08-22T07:35:10.621Z,43.68
2022-08-22T07:37:58.462Z,41.72
2022-08-22T07:40:35.674Z,42.79
2022-08-22T07:43:17.582Z,41.84
2022-08-22T07:45:53.778Z,43.63
2022-08-22T07:48:27.722Z,42.54
2022-08-22T07:51:04.389Z,43.42
2022-08-22T07:53:41.518Z,40.88
2022-08-22T07:56:27.709Z,37.08
2022-08-22T07:59:01.111Z,37.25
2022-08-22T08:01:30.243Z,36.74
2022-08-22T08:04:04.500Z,36.32
2022-08-22T08:06:33.998Z,37.46
2022-08-22T08:09:04.397Z,38.78
2022-08-22T08:11:41.186Z,38.12
2022-08-22T08:14:13.692Z,38.25
2022-08-22T08:16:46.001Z,37.35
2022-08-22T08:19:16.835Z,39.67
2022-08-22T08:21:54.583Z,38.47
2022-08-22T08:24:32.236Z,36.60
2022-08-22T08:27:33.118Z,34.81
2022-08-22T08:30:07.323Z,34.79
2022-08-22T08:32:39.765Z,33.85
2022-08-22T08:35:14.431Z,33.82
2022-08-22T08:37:48.984Z,33.82
2022-08-22T08:40:39.568Z,33.19
2022-08-22T08:43:28.249Z,32.83
2022-08-22T08:46:24.800Z,34.21
2022-08-22T08:49:27.731Z,34.98
2022-08-22T08:52:40.467Z,34.98
2022-08-22T08:55:33.321Z,36.39
2022-08-22T08:58:26.874Z,36.94
2022-08-22T09:01:07.130Z,36.29
2022-08-22T09:04:15.617Z,36.66
2022-08-22T09:07:09.508Z,35.66
2022-08-22T09:09:52.731Z,35.97
2022-08-22T09:12:56.444Z,36.12
2022-08-22T09:16:04.895Z,34.86
2022-08-22T09:19:16.316Z,35.27
2022-08-22T09:22:33.526Z,34.59
2022-08-22T09:25:25.196Z,36.00
2022-08-22T09:28:02.460Z,35.16
2022-08-22T09:30:59.663Z,34.46
2022-08-22T09:33:36.575Z,35.18
2022-08-22T09:36:13.271Z,33.52
2022-08-22T09:38:56.366Z,33.81
2022-08-22T09:41:39.019Z,33.63
2022-08-22T09:44:19.745Z,32.88
2022-08-22T09:47:08.474Z,33.28
2022-08-22T09:49:50.030Z,33.22
2022-08-22T09:52:36.814Z,32.06
2022-08-22T09:55:16.872Z,31.92
2022-08-22T09:57:53.020Z,32.51
2022-08-22T10:00:26.553Z,31.21
2022-08-22T10:03:15.411Z,31.10
2022-08-22T10:05:48.682Z,30.74
2022-08-22T10:08:45.844Z,31.51
2022-08-22T10:11:28.765Z,31.30
2022-08-22T10:14:04.661Z,32.23
2022-08-22T10:16:59.182Z,32.18
2022-08-22T10:19:35.726Z,31.77
2022-08-22T10:22:29.983Z,31.24
2022-08-22T10:25:18.558Z,29.88
2022-08-22T10:28:00.117Z,28.48
2022-08-22T10:30:34.869Z,27.35
2022-08-22T10:33:12.025Z,26.33
2022-08-22T10:36:05.178Z,30.45
2022-08-22T10:38:44.238Z,26.17
2022-08-22T10:41:37.911Z,26.73
2022-08-22T10:44:17.210Z,27.30
2022-08-22T10:46:53.619Z,29.74
2022-08-22T10:49:33.344Z,30.70
2022-08-22T10:52:17.005Z,31.04
2022-08-22T10:54:52.723Z,30.75
2022-08-22T10:57:52.207Z,30.41
2022-08-22T11:00:45.995Z,30.42
2022-08-22T11:03:23.558Z,30.81
2022-08-22T11:05:56.102Z,31.33
2022-08-22T11:09:16.666Z,30.10
2022-08-22T11:11:49.736Z,31.28
2022-08-22T11:15:04.691Z,30.05
2022-08-22T11:18:13.072Z,28.52
2022-08-22T11:20:53.810Z,26.13
2022-08-22T11:23:39.423Z,26.87
2022-08-22T11:26:33.514Z,27.66
2022-08-22T11:29:41.173Z,26.58
2022-08-22T11:32:18.964Z,26.38
2022-08-22T11:34:57.315Z,26.64
2022-08-22T11:37:46.736Z,27.28
2022-08-22T11:40:32.672Z,26.88
2022-08-22T11:43:18.360Z,28.57
2022-08-22T11:45:49.555Z,27.54
2022-08-22T11:48:26.141Z,26.36
2022-08-22T11:51:13.467Z,27.37
2022-08-22T11:53:48.712Z,26.47
2022-08-22T11:56:26.788Z,26.85
2022-08-22T11:59:03.202Z,27.69
2022-08-22T12:01:43.203Z,26.47
2022-08-22T12:04:19.263Z,31.96
2022-08-22T12:07:02.459Z,29.24
2022-08-22T12:09:42.828Z,26.97
2022-08-22T12:12:25.580Z,26.51
2022-08-22T12:15:03.699Z,26.73
2022-08-22T12:18:19.948Z,28.95
2022-08-22T12:21:19.477Z,28.81
2022-08-22T12:24:30.802Z,29.19
2022-08-22T12:27:33.852Z,25.50
2022-08-22T12:30:16.922Z,26.05
2022-08-22T12:33:28.682Z,28.70
2022-08-22T12:36:18.184Z,26.68
2022-08-22T12:39:26.805Z,27.57
2022-08-22T12:42:41.905Z,27.34
2022-08-22T12:45:37.320Z,31.78
2022-08-22T12:48:28.121Z,29.57
2022-08-22T12:51:18.197Z,29.47
2022-08-22T12:54:28.520Z,31.25
2022-08-22T12:57:10.520Z,26.98
2022-08-22T12:59:58.106Z,26.16
2022-08-22T13:02:32.769Z,29.45
2022-08-22T13:05:13.673Z,26.82
2022-08-22T13:07:55.022Z,31.27
2022-08-22T13:10:46.906Z,31.79
2022-08-22T13:13:31.512Z,26.20
2022-08-22T13:16:08.239Z,25.85
2022-08-22T13:18:53.527Z,26.33
2022-08-22T13:21:31.696Z,26.85
2022-08-22T13:24:10.376Z,26.99
2022-08-22T13:26:49.232Z,30.96
2022-08-22T13:29:26.194Z,29.36
2022-08-22T13:32:01.625Z,31.56
2022-08-22T13:34:43.571Z,29.66
2022-08-22T13:37:16.983Z,31.02
2022-08-22T13:39:49.316Z,25.95
2022-08-22T13:42:30.192Z,26.36
2022-08-22T13:45:04.481Z,32.04
2022-08-22T13:47:39.411Z,31.38
2022-08-22T13:50:15.774Z,29.28
2022-08-22T13:52:53.747Z,27.81
2022-08-22T13:55:31.329Z,26.35
2022-08-22T13:58:06.968Z,26.05
2022-08-22T14:01:28.460Z,30.15
2022-08-22T14:04:02.755Z,32.00
2022-08-22T14:06:41.540Z,30.74
2022-08-22T14:09:31.363Z,25.34
2022-08-22T14:12:13.644Z,30.09
2022-08-22T14:14:45.887Z,30.60
2022-08-22T14:17:18.448Z,30.81
2022-08-22T14:19:59.683Z,30.69
2022-08-22T14:22:35.822Z,31.41
2022-08-22T14:25:09.738Z,32.84
2022-08-22T14:27:57.970Z,26.34
2022-08-22T14:30:29.799Z,28.87
2022-08-22T14:33:12.474Z,31.59
2022-08-22T14:35:52.970Z,28.18
2022-08-22T14:38:30.305Z,31.05
2022-08-22T14:41:13.885Z,28.80
2022-08-22T14:43:56.821Z,31.79
2022-08-22T14:46:31.630Z,30.54
2022-08-22T14:49:30.435Z,27.88
2022-08-22T14:52:07.519Z,28.47
2022-08-22T14:54:40.139Z,30.87
2022-08-22T14:57:19.916Z,28.75
2022-08-22T14:59:52.833Z,29.04
2022-08-22T15:02:28.063Z,27.97
2022-08-22T15:04:58.148Z,28.76
2022-08-22T15:07:37.661Z,30.82
2022-08-22T15:10:20.642Z,30.79
2022-08-22T15:12:53.940Z,26.47
2022-08-22T15:15:41.276Z,26.49
2022-08-22T15:18:36.464Z,24.97
2022-08-22T15:21:10.281Z,26.58
2022-08-22T15:23:46.578Z,25.75
2022-08-22T15:26:26.201Z,31.46
2022-08-22T15:29:08.812Z,25.16
2022-08-22T15:31:41.553Z,28.08
2022-08-22T15:34:20.937Z,28.92
2022-08-22T15:37:29.501Z,25.65
2022-08-22T15:40:11.623Z,24.87
2022-08-22T15:42:46.032Z,27.37
2022-08-22T15:45:30.661Z,26.06
2022-08-22T15:48:06.181Z,27.76
2022-08-22T15:50:41.964Z,25.06
2022-08-22T15:53:21.554Z,28.36
2022-08-22T15:56:23.419Z,27.69
2022-08-22T15:59:27.823Z,29.65
2022-08-22T16:02:04.860Z,26.23
2022-08-22T16:04:47.362Z,26.60
2022-08-22T16:07:34.297Z,26.54
2022-08-22T16:10:09.635Z,27.92
2022-08-22T16:12:43.055Z,27.29
2022-08-22T16:16:00.357Z,24.94
2022-08-22T16:19:20.255Z,26.76
2022-08-22T16:22:18.975Z,28.38
2022-08-22T16:25:10.339Z,25.38
2022-08-22T16:27:57.443Z,25.16
2022-08-22T16:30:39.641Z,27.58
2022-08-22T16:33:18.044Z,25.04
2022-08-22T16:36:46.091Z,24.95
2022-08-22T16:39:37.361Z,28.04
2022-08-22T16:42:36.183Z,26.06
2022-08-22T16:45:17.614Z,27.45
2022-08-22T16:48:05.465Z,27.56
2022-08-22T16:50:41.039Z,31.28
2022-08-22T16:53:33.396Z,30.74
2022-08-22T16:56:26.380Z,31.44
2022-08-22T16:59:41.070Z,31.66
2022-08-22T17:02:26.649Z,31.46
2022-08-22T17:05:09.749Z,26.63
2022-08-22T17:07:58.717Z,28.06
2022-08-22T17:10:41.666Z,27.15
2022-08-22T17:13:35.419Z,29.57
2022-08-22T17:16:22.898Z,31.51
2022-08-22T17:19:20.738Z,31.68
2022-08-22T17:21:57.363Z,28.28
2022-08-22T17:24:37.444Z,26.82
2022-08-22T17:27:16.754Z,29.19
2022-08-22T17:30:01.728Z,26.48
2022-08-22T17:32:46.944Z,27.86
2022-08-22T17:35:34.404Z,26.37
2022-08-22T17:38:14.427Z,30.59
2022-08-22T17:41:00.933Z,32.02
2022-08-22T17:43:49.275Z,31.31
2022-08-22T17:46:41.225Z,31.36
2022-08-22T17:49:34.531Z,32.98
2022-08-22T17:52:11.595Z,32.56
2022-08-22T17:54:49.210Z,32.86
2022-08-22T17:57:30.962Z,32.91
2022-08-22T18:00:07.582Z,33.23
2022-08-22T18:02:42.682Z,33.67
2022-08-22T18:05:20.314Z,30.81
2022-08-22T18:08:00.591Z,30.42
2022-08-22T18:10:46.018Z,30.75
2022-08-22T18:13:31.405Z,29.40
2022-08-22T18:16:08.410Z,30.46
2022-08-22T18:18:40.541Z,32.05
2022-08-22T18:21:18.511Z,28.55
2022-08-22T18:23:53.983Z,28.85
2022-08-22T18:26:30.338Z,31.65
2022-08-22T18:29:10.044Z,29.94
2022-08-22T18:31:48.502Z,28.67
2022-08-22T18:34:31.443Z,28.89
2022-08-22T18:37:06.066Z,30.78
2022-08-22T18:39:43.989Z,30.45
2022-08-22T18:42:25.569Z,31.31
2022-08-22T18:44:55.609Z,30.17
2022-08-22T18:47:32.650Z,29.36
2022-08-22T18:50:24.585Z,29.94
2022-08-22T18:52:57.465Z,29.58
2022-08-22T18:55:48.374Z,30.81
2022-08-22T18:59:05.196Z,29.40
2022-08-22T19:01:56.254Z,30.01
2022-08-22T19:04:57.510Z,29.63
2022-08-22T19:07:55.407Z,29.54
2022-08-22T19:10:41.799Z,30.51
2022-08-22T19:13:39.682Z,30.59
2022-08-22T19:16:52.128Z,30.06
2022-08-22T19:19:53.897Z,31.35
2022-08-22T19:22:26.145Z,30.60
2022-08-22T19:25:15.727Z,30.98
2022-08-22T19:27:48.313Z,31.50
2022-08-22T19:30:45.698Z,32.22
2022-08-22T19:33:34.285Z,31.07
2022-08-22T19:36:11.885Z,30.59
2022-08-22T19:39:00.481Z,30.92
2022-08-22T19:41:53.587Z,31.53
2022-08-22T19:44:42.228Z,30.84
2022-08-22T19:47:34.902Z,31.45
2022-08-22T19:50:13.373Z,31.69
2022-08-22T19:52:58.771Z,32.78
2022-08-22T19:55:42.066Z,32.28
2022-08-22T19:58:32.886Z,31.90
2022-08-22T20:01:09.967Z,32.26
2022-08-22T20:03:51.597Z,32.32
2022-08-22T20:06:47.819Z,32.23
2022-08-22T20:09:31.997Z,32.31
2022-08-22T20:12:14.667Z,32.36
2022-08-22T20:14:46.101Z,32.22
2022-08-22T20:17:41.643Z,32.50
2022-08-22T20:20:17.328Z,32.57
2022-08-22T20:22:53.107Z,32.69
2022-08-22T20:25:42.979Z,32.84
2022-08-22T20:28:40.409Z,32.55
2022-08-22T20:31:20.734Z,32.88
2022-08-22T20:33:59.110Z,32.81
2022-08-22T20:36:29.288Z,32.77
2022-08-22T20:39:03.344Z,32.86
2022-08-22T20:41:37.418Z,32.92
2022-08-22T20:44:13.678Z,33.01
2022-08-22T20:46:55.203Z,33.33
2022-08-22T20:49:31.232Z,33.82
2022-08-22T20:52:02.089Z,33.51
2022-08-22T20:54:33.117Z,33.42
2022-08-22T20:57:13.912Z,33.73
2022-08-22T20:59:51.495Z,33.60
2022-08-22T21:02:25.114Z,33.88
2022-08-22T21:05:03.281Z,34.75
2022-08-22T21:07:35.155Z,34.24
2022-08-22T21:10:25.008Z,33.97
2022-08-22T21:13:10.246Z,33.88
2022-08-22T21:15:42.913Z,34.02
2022-08-22T21:18:14.171Z,33.92
2022-08-22T21:20:43.994Z,34.12
2022-08-22T21:23:16.059Z,34.35
2022-08-22T21:26:08.639Z,34.81
2022-08-22T21:28:55.461Z,34.94
2022-08-22T21:31:26.197Z,34.44
2022-08-22T21:33:56.587Z,34.44
2022-08-22T21:36:30.294Z,35.01
2022-08-22T21:39:03.659Z,35.01
2022-08-22T21:41:38.983Z,35.46
2022-08-22T21:44:28.915Z,35.47
2022-08-22T21:46:58.423Z,35.89
2022-08-22T21:49:30.425Z,35.98
2022-08-22T21:52:00.179Z,36.00
2022-08-22T21:54:42.546Z,36.22
2022-08-22T21:57:35.604Z,36.43
2022-08-22T22:00:11.038Z,36.32
2022-08-22T22:02:43.832Z,36.14
2022-08-22T22:05:17.029Z,36.33
2022-08-22T22:07:48.440Z,36.18
2022-08-22T22:10:22.755Z,36.17
2022-08-22T22:12:52.714Z,36.12
2022-08-22T22:15:31.870Z,36.54
2022-08-22T22:18:01.337Z,36.64
2022-08-22T22:20:30.159Z,36.65
2022-08-22T22:23:00.177Z,36.92
2022-08-22T22:25:40.381Z,36.54
2022-08-22T22:28:15.902Z,36.73
2022-08-22T22:30:45.535Z,36.94
2022-08-22T22:33:13.966Z,37.24
2022-08-22T22:35:42.476Z,37.29
2022-08-22T22:38:13.539Z,37.41
2022-08-22T22:40:42.612Z,37.25
2022-08-22T22:43:12.629Z,37.33
2022-08-22T22:45:41.621Z,37.20
2022-08-22T22:48:10.142Z,37.56
2022-08-22T22:50:40.920Z,38.12
2022-08-22T22:53:11.797Z,37.96
2022-08-22T22:55:48.110Z,37.93
2022-08-22T22:58:28.800Z,38.47
2022-08-22T23:00:58.819Z,38.50
2022-08-22T23:03:27.419Z,38.47
2022-08-22T23:05:55.797Z,38.74
2022-08-22T23:08:25.646Z,38.78
2022-08-22T23:10:54.183Z,38.81
2022-08-22T23:13:22.651Z,38.79
2022-08-22T23:15:51.035Z,39.24
2022-08-22T23:18:21.027Z,39.21
2022-08-22T23:20:58.750Z,39.08
2022-08-22T23:23:28.525Z,39.37
2022-08-22T23:25:56.917Z,39.60
2022-08-22T23:28:25.306Z,39.73
2022-08-22T23:30:53.666Z,39.63
2022-08-22T23:33:22.132Z,39.77
2022-08-22T23:35:51.484Z,40.09
2022-08-22T23:38:25.408Z,40.24
2022-08-22T23:40:55.206Z,40.08
2022-08-22T23:43:23.599Z,40.17
2022-08-22T23:45:52.213Z,39.88
2022-08-22T23:48:20.635Z,40.15
2022-08-22T23:50:49.305Z,39.98
2022-08-22T23:53:17.729Z,40.25
2022-08-22T23:55:46.202Z,40.34
2022-08-22T23:58:16.608Z,40.35
